createdAt,value
2023-12-30T00:01:41.721Z,151432.72
2023-12-30T00:03:43.237Z,151483.25
2023-12-30T00:05:44.736Z,151508.50
2023-12-30T00:07:46.623Z,151528.72
2023-12-30T00:09:48.148Z,151485.78
2023-12-30T00:11:49.626Z,151495.91
2023-12-30T00:13:51.173Z,151511.06
2023-12-30T00:15:53.000Z,151502.19
2023-12-30T00:17:54.589Z,151450.41
2023-12-30T00:19:57.807Z,151487.03
2023-12-30T00:21:59.467Z,151523.66
2023-12-30T00:24:01.181Z,151541.34
2023-12-30T00:26:02.883Z,151470.63
2023-12-30T00:28:04.509Z,151476.94
2023-12-30T00:30:06.680Z,151543.88
2023-12-30T00:32:08.577Z,151555.34
2023-12-30T00:34:10.180Z,151569.22
2023-12-30T00:36:11.843Z,151479.44
2023-12-30T00:38:15.170Z,151508.50
2023-12-30T00:40:25.828Z,151518.66
2023-12-30T00:42:28.519Z,151461.75
2023-12-30T00:44:30.217Z,151507.25
2023-12-30T00:46:31.740Z,151518.66
2023-12-30T00:48:33.253Z,151493.38
2023-12-30T00:50:34.927Z,151423.88
2023-12-30T00:52:36.402Z,151542.63
2023-12-30T00:54:41.315Z,151507.25
2023-12-30T00:56:49.636Z,151574.28
2023-12-30T00:58:51.077Z,151512.31
2023-12-30T01:00:53.185Z,151575.56
2023-12-30T01:02:54.861Z,151584.38
2023-12-30T01:04:56.465Z,151555.34
2023-12-30T01:06:58.068Z,151637.47
2023-12-30T01:08:59.757Z,151607.13
2023-12-30T01:11:01.209Z,151538.88
2023-12-30T01:13:02.993Z,151583.09
2023-12-30T01:15:05.225Z,151591.97
2023-12-30T01:17:06.712Z,151619.78
2023-12-30T01:19:08.215Z,151542.63
2023-12-30T01:21:09.922Z,151521.13
2023-12-30T01:23:11.394Z,151512.31
2023-12-30T01:25:12.984Z,151566.69
2023-12-30T01:27:15.065Z,151593.25
2023-12-30T01:29:16.511Z,151557.88
2023-12-30T01:31:18.149Z,151540.13
2023-12-30T01:33:20.010Z,151426.41
2023-12-30T01:35:21.489Z,151602.09
2023-12-30T01:37:23.017Z,151517.38
2023-12-30T01:39:24.732Z,151518.66
2023-12-30T01:41:26.169Z,151573.00
2023-12-30T01:43:30.482Z,151557.88
2023-12-30T01:45:32.130Z,151573.00
2023-12-30T01:47:35.084Z,151509.78
2023-12-30T01:49:36.936Z,151622.31
2023-12-30T01:51:38.583Z,151658.97
2023-12-30T01:53:43.063Z,151610.91
2023-12-30T01:55:46.155Z,151704.50
2023-12-30T01:57:47.909Z,151584.38
2023-12-30T01:59:49.908Z,151540.13
2023-12-30T02:01:51.602Z,151584.38
2023-12-30T02:03:54.020Z,151584.38
2023-12-30T02:05:55.878Z,151665.25
2023-12-30T02:07:57.576Z,151589.44
2023-12-30T02:09:59.146Z,151602.09
2023-12-30T02:12:00.837Z,151566.69
2023-12-30T02:14:02.385Z,151589.44
2023-12-30T02:16:03.937Z,151633.69
2023-12-30T02:18:05.756Z,151643.75
2023-12-30T02:20:07.884Z,151661.50
2023-12-30T02:22:09.510Z,151589.44
2023-12-30T02:24:10.968Z,151522.41
2023-12-30T02:26:12.414Z,151578.09
2023-12-30T02:28:14.112Z,151497.16
2023-12-30T02:30:16.176Z,151595.78
2023-12-30T02:32:17.726Z,151526.19
2023-12-30T02:34:20.184Z,151665.25
2023-12-30T02:36:21.771Z,151704.50
2023-12-30T02:38:23.217Z,151621.06
2023-12-30T02:40:24.797Z,151738.59
2023-12-30T02:42:26.294Z,151701.94
2023-12-30T02:44:27.752Z,151662.78
2023-12-30T02:46:29.707Z,151742.41
2023-12-30T02:48:31.243Z,151669.06
2023-12-30T02:50:32.922Z,151689.28
2023-12-30T02:52:34.631Z,151701.94
2023-12-30T02:56:37.754Z,151720.91
2023-12-30T02:58:39.385Z,151756.31
2023-12-30T03:00:40.890Z,151640.00
2023-12-30T03:02:42.766Z,151738.59
2023-12-30T03:04:44.587Z,151643.75
2023-12-30T03:06:46.126Z,151683.00
2023-12-30T03:08:47.823Z,151751.25
2023-12-30T03:10:49.592Z,151589.44
2023-12-30T03:12:51.085Z,151708.25
2023-12-30T03:14:52.586Z,151774.00
2023-12-30T03:16:54.226Z,151710.78
2023-12-30T03:18:55.770Z,151683.00
2023-12-30T03:20:57.703Z,151717.13
2023-12-30T03:22:59.556Z,151748.69
2023-12-30T03:25:01.279Z,151723.44
2023-12-30T03:27:02.870Z,151763.91
2023-12-30T03:29:04.466Z,151770.19
2023-12-30T03:31:08.293Z,151781.59
2023-12-30T03:33:09.832Z,151749.97
2023-12-30T03:35:11.636Z,151725.94
2023-12-30T03:37:13.150Z,151732.28
2023-12-30T03:39:14.605Z,151732.28
2023-12-30T03:41:17.221Z,151805.63
2023-12-30T03:43:18.740Z,151762.63
2023-12-30T03:45:20.234Z,151712.03
2023-12-30T03:47:21.819Z,151705.72
2023-12-30T03:49:23.364Z,151669.06
2023-12-30T03:51:24.922Z,151712.03
2023-12-30T03:53:26.515Z,151714.59
2023-12-30T03:55:28.331Z,151723.44
2023-12-30T03:57:29.806Z,151741.16
2023-12-30T03:59:31.478Z,151753.75
2023-12-30T04:01:33.013Z,151680.47
2023-12-30T04:03:34.538Z,151739.88
2023-12-30T04:05:36.137Z,151631.16
2023-12-30T04:07:37.704Z,151703.22
2023-12-30T04:09:39.172Z,151703.22
2023-12-30T04:11:40.744Z,151641.28
2023-12-30T04:13:42.280Z,151689.28
2023-12-30T04:15:43.748Z,151680.47
2023-12-30T04:17:48.070Z,151693.09
2023-12-30T04:19:49.672Z,151561.63
2023-12-30T04:21:51.446Z,151690.56
2023-12-30T04:23:53.101Z,151674.13
2023-12-30T04:25:54.599Z,151633.69
2023-12-30T04:27:56.653Z,151612.19
2023-12-30T04:29:58.359Z,151656.44
2023-12-30T04:31:59.878Z,151622.31
2023-12-30T04:34:01.414Z,151685.47
2023-12-30T04:36:03.163Z,151632.41
2023-12-30T04:38:04.632Z,151724.72
2023-12-30T04:40:06.731Z,151658.97
2023-12-30T04:42:11.062Z,151576.81
2023-12-30T04:44:12.520Z,151685.47
2023-12-30T04:46:14.625Z,151618.53
2023-12-30T04:48:16.426Z,151595.78
2023-12-30T04:50:18.256Z,151586.91
2023-12-30T04:52:19.745Z,151586.91
2023-12-30T04:54:21.343Z,151551.53
2023-12-30T04:56:23.287Z,151425.13
2023-12-30T04:58:24.878Z,151324.09
2023-12-30T05:00:26.543Z,151375.91
2023-12-30T05:02:28.017Z,151284.97
2023-12-30T05:04:29.638Z,151204.16
2023-12-30T05:06:31.319Z,151180.19
2023-12-30T05:08:33.776Z,151117.06
2023-12-30T05:10:35.715Z,151134.72
2023-12-30T05:12:37.404Z,151057.72
2023-12-30T05:14:39.116Z,151057.72
2023-12-30T05:16:47.036Z,151160.00
2023-12-30T05:18:48.960Z,151074.13
2023-12-30T05:20:50.521Z,151118.34
2023-12-30T05:22:52.150Z,151115.81
2023-12-30T05:24:53.903Z,151038.78
2023-12-30T05:26:55.579Z,150927.78
2023-12-30T05:28:57.091Z,151081.72
2023-12-30T05:30:58.906Z,151027.41
2023-12-30T05:33:00.749Z,150978.25
2023-12-30T05:35:02.500Z,150993.38
2023-12-30T05:37:04.248Z,150964.38
2023-12-30T05:39:05.742Z,151056.47
2023-12-30T05:41:07.224Z,151069.06
2023-12-30T05:43:08.781Z,150958.06
2023-12-30T05:45:10.922Z,150946.69
2023-12-30T05:47:12.424Z,151004.75
2023-12-30T05:49:14.012Z,150947.94
2023-12-30T05:51:15.724Z,150831.94
2023-12-30T05:53:17.756Z,150994.63
2023-12-30T05:55:19.289Z,150935.34
2023-12-30T05:57:20.925Z,151008.50
2023-12-30T05:59:22.463Z,151003.50
2023-12-30T06:01:24.046Z,150915.19
2023-12-30T06:03:25.724Z,150920.25
2023-12-30T06:05:27.361Z,150941.69
2023-12-30T06:07:28.886Z,151014.81
2023-12-30T06:09:30.592Z,150926.50
2023-12-30T06:11:32.100Z,150970.66
2023-12-30T06:13:33.626Z,150915.19
2023-12-30T06:15:35.267Z,150854.66
2023-12-30T06:17:36.835Z,150931.56
2023-12-30T06:19:38.367Z,150911.38
2023-12-30T06:21:40.075Z,150983.31
2023-12-30T06:23:41.564Z,151026.19
2023-12-30T06:25:43.096Z,151009.75
2023-12-30T06:27:44.753Z,151018.63
2023-12-30T06:29:46.711Z,150988.31
2023-12-30T06:31:48.842Z,151032.47
2023-12-30T06:33:50.430Z,150893.75
2023-12-30T06:35:51.984Z,151119.59
2023-12-30T06:37:53.612Z,151038.78
2023-12-30T06:39:55.134Z,150994.63
2023-12-30T06:41:57.843Z,151006.03
2023-12-30T06:43:59.581Z,151105.72
2023-12-30T06:46:04.870Z,151177.66
2023-12-30T06:48:07.073Z,151205.44
2023-12-30T06:50:08.887Z,151108.25
2023-12-30T06:52:10.436Z,151109.47
2023-12-30T06:54:12.362Z,151143.59
2023-12-30T06:56:13.983Z,151129.72
2023-12-30T06:58:15.535Z,151161.25
2023-12-30T07:00:17.386Z,151009.75
2023-12-30T07:02:18.916Z,150989.59
2023-12-30T07:04:20.525Z,151085.50
2023-12-30T07:06:22.534Z,151107.00
2023-12-30T07:08:24.039Z,151123.41
2023-12-30T07:10:25.578Z,151036.28
2023-12-30T07:12:27.169Z,151053.94
2023-12-30T07:14:28.634Z,151031.22
2023-12-30T07:16:30.099Z,150970.66
2023-12-30T07:18:31.752Z,151061.50
2023-12-30T07:20:33.251Z,150936.63
2023-12-30T07:22:34.752Z,151019.88
2023-12-30T07:24:36.274Z,150901.31
2023-12-30T07:26:37.785Z,151028.69
2023-12-30T07:28:39.295Z,151023.69
2023-12-30T07:30:40.856Z,151003.50
2023-12-30T07:32:42.645Z,150924.03
2023-12-30T07:34:44.156Z,150915.19
2023-12-30T07:36:45.957Z,150990.84
2023-12-30T07:38:47.454Z,150990.84
2023-12-30T07:40:48.925Z,150945.44
2023-12-30T07:42:50.411Z,150936.63
2023-12-30T07:44:53.507Z,150973.19
2023-12-30T07:46:54.965Z,150932.84
2023-12-30T07:48:56.985Z,151002.22
2023-12-30T07:50:58.624Z,150976.97
2023-12-30T07:53:00.626Z,150946.69
2023-12-30T07:55:02.406Z,150984.56
2023-12-30T07:57:04.365Z,150950.47
2023-12-30T07:59:05.829Z,150897.53
2023-12-30T08:01:07.425Z,150998.44
2023-12-30T08:03:09.113Z,150930.31
2023-12-30T08:05:10.583Z,150973.19
2023-12-30T08:07:12.453Z,150950.47
2023-12-30T08:09:14.055Z,150984.56
2023-12-30T08:11:15.626Z,150901.31
2023-12-30T08:13:17.126Z,150916.44
2023-12-30T08:15:18.823Z,151018.63
2023-12-30T08:17:20.395Z,150975.72
2023-12-30T08:19:22.056Z,150979.50
2023-12-30T08:21:23.752Z,150907.59
2023-12-30T08:23:25.277Z,150980.78
2023-12-30T08:25:26.837Z,150950.47
2023-12-30T08:27:28.478Z,150863.44
2023-12-30T08:29:29.940Z,150818.09
2023-12-30T08:31:35.306Z,150934.09
2023-12-30T08:33:36.952Z,150966.88
2023-12-30T08:35:38.428Z,150741.16
2023-12-30T08:37:40.124Z,150910.13
2023-12-30T08:39:41.899Z,150970.66
2023-12-30T08:41:43.353Z,150915.19
2023-12-30T08:43:44.929Z,150969.41
2023-12-30T08:45:46.632Z,150887.41
2023-12-30T08:47:48.344Z,150990.84
2023-12-30T08:49:49.887Z,150902.59
2023-12-30T08:51:51.472Z,150801.72
2023-12-30T08:53:52.951Z,150892.47
2023-12-30T08:55:54.817Z,150924.03
2023-12-30T08:57:56.541Z,150963.13
2023-12-30T08:59:58.036Z,150903.84
2023-12-30T09:01:59.564Z,150889.94
2023-12-30T09:04:01.543Z,151004.75
2023-12-30T09:06:03.506Z,150815.56
2023-12-30T09:08:05.366Z,150864.72
2023-12-30T09:10:07.437Z,150982.03
2023-12-30T09:12:09.324Z,150799.19
2023-12-30T09:14:11.348Z,150939.16
2023-12-30T09:16:13.253Z,151009.75
2023-12-30T09:18:15.451Z,150993.38
2023-12-30T09:20:18.063Z,150975.72
2023-12-30T09:22:19.914Z,150918.97
2023-12-30T09:24:21.377Z,151016.09
2023-12-30T09:26:23.034Z,151042.59
2023-12-30T09:28:24.726Z,151028.69
2023-12-30T09:30:26.313Z,151043.84
2023-12-30T09:32:28.281Z,150959.34
2023-12-30T09:34:38.810Z,151110.75
2023-12-30T09:36:45.409Z,151123.41
2023-12-30T09:38:47.253Z,151058.97
2023-12-30T09:40:48.882Z,151046.38
2023-12-30T09:42:51.639Z,151120.88
2023-12-30T09:44:54.348Z,151215.50
2023-12-30T09:46:57.238Z,151091.81
2023-12-30T09:48:59.686Z,151200.38
2023-12-30T09:51:01.376Z,151191.53
2023-12-30T09:53:03.327Z,151177.66
2023-12-30T09:55:05.548Z,151202.91
2023-12-30T09:57:07.158Z,151194.03
2023-12-30T09:59:09.146Z,151302.63
2023-12-30T10:01:13.252Z,151253.38
2023-12-30T10:03:15.983Z,151234.44
2023-12-30T10:05:17.919Z,151180.19
2023-12-30T10:07:20.386Z,151197.84
2023-12-30T10:09:23.170Z,151199.09
2023-12-30T10:11:25.098Z,151172.59
2023-12-30T10:13:26.651Z,151154.94
2023-12-30T10:15:28.166Z,151157.47
2023-12-30T10:17:30.554Z,151183.97
2023-12-30T10:19:32.246Z,151080.44
2023-12-30T10:21:33.774Z,151100.69
2023-12-30T10:23:36.096Z,151081.72
2023-12-30T10:25:37.855Z,150949.22
2023-12-30T10:27:39.576Z,150907.59
2023-12-30T10:29:47.272Z,150910.13
2023-12-30T10:32:02.543Z,150887.41
2023-12-30T10:34:06.362Z,150879.88
2023-12-30T10:36:08.284Z,150857.19
2023-12-30T10:38:10.816Z,150892.47
2023-12-30T10:40:12.455Z,150799.19
2023-12-30T10:42:14.097Z,150719.78
2023-12-30T10:44:15.759Z,150819.34
2023-12-30T10:46:19.617Z,150897.53
2023-12-30T10:48:22.232Z,150852.13
2023-12-30T10:50:24.219Z,150896.25
2023-12-30T10:52:25.968Z,150939.16
2023-12-30T10:54:34.534Z,150942.94
2023-12-30T10:56:43.950Z,150998.44
2023-12-30T10:58:46.061Z,150984.56
2023-12-30T11:00:57.686Z,150939.16
2023-12-30T11:02:59.601Z,150985.84
2023-12-30T11:05:01.926Z,150976.97
2023-12-30T11:07:07.605Z,150922.75
2023-12-30T11:09:09.937Z,151024.94
2023-12-30T11:11:13.106Z,151032.47
2023-12-30T11:13:14.667Z,150958.06
2023-12-30T11:15:29.641Z,151066.56
2023-12-30T11:17:37.623Z,151017.34
2023-12-30T11:19:39.346Z,151052.66
2023-12-30T11:21:43.306Z,151114.53
2023-12-30T11:23:44.818Z,151066.56
2023-12-30T11:25:47.803Z,151137.25
2023-12-30T11:27:53.379Z,151017.34
2023-12-30T11:29:54.816Z,150921.50
2023-12-30T11:31:58.312Z,150940.41
2023-12-30T11:34:00.591Z,150955.53
2023-12-30T11:36:04.684Z,150966.88
2023-12-30T11:38:07.502Z,151004.75
2023-12-30T11:40:13.504Z,151056.47
2023-12-30T11:42:15.064Z,151033.75
2023-12-30T11:44:16.767Z,150978.25
2023-12-30T11:46:18.709Z,150993.38
2023-12-30T11:48:20.331Z,150973.19
2023-12-30T11:50:21.979Z,150892.47
2023-12-30T11:52:23.736Z,150964.38
2023-12-30T11:54:25.861Z,150950.47
2023-12-30T11:56:27.499Z,151051.41
2023-12-30T11:58:32.166Z,151069.06
2023-12-30T12:00:33.958Z,151043.84
2023-12-30T12:02:35.707Z,151093.09
2023-12-30T12:04:38.110Z,150971.94
2023-12-30T12:06:39.762Z,151023.69
2023-12-30T12:08:42.975Z,151052.66
2023-12-30T12:10:45.900Z,151088.06
2023-12-30T12:12:47.391Z,151071.59
2023-12-30T12:14:50.473Z,151088.06
2023-12-30T12:16:52.025Z,151055.19
2023-12-30T12:18:54.608Z,151017.34
2023-12-30T12:20:56.817Z,150953.00
2023-12-30T12:22:58.299Z,151003.50
2023-12-30T12:25:01.416Z,151026.19
2023-12-30T12:27:03.008Z,150998.44
2023-12-30T12:29:07.668Z,150863.44
2023-12-30T12:31:09.363Z,151013.56
2023-12-30T12:33:13.035Z,151086.81
2023-12-30T12:35:14.600Z,151062.78
2023-12-30T12:37:20.019Z,151168.84
2023-12-30T12:39:21.677Z,151110.75
2023-12-30T12:41:23.182Z,151096.88
2023-12-30T12:43:24.689Z,151101.94
2023-12-30T12:45:27.917Z,151137.25
2023-12-30T12:47:30.823Z,151031.22
2023-12-30T12:49:32.428Z,150931.56
2023-12-30T12:51:33.984Z,150963.13
2023-12-30T12:53:35.455Z,151031.22
2023-12-30T12:55:36.992Z,150973.19
2023-12-30T12:57:38.636Z,150942.94
2023-12-30T12:59:40.129Z,151006.03
2023-12-30T13:01:41.878Z,151038.78
2023-12-30T13:03:43.625Z,151007.22
2023-12-30T13:05:45.096Z,150994.63
2023-12-30T13:07:46.910Z,150950.47
2023-12-30T13:09:48.534Z,150998.44
2023-12-30T13:11:49.987Z,151056.47
2023-12-30T13:13:51.463Z,150976.97
2023-12-30T13:15:53.070Z,150942.94
2023-12-30T13:17:55.003Z,150884.88
2023-12-30T13:19:56.620Z,151028.69
2023-12-30T13:21:58.303Z,151031.22
2023-12-30T13:23:59.908Z,150971.94
2023-12-30T13:26:04.425Z,150939.16
2023-12-30T13:28:06.588Z,150975.72
2023-12-30T13:30:08.654Z,150874.81
2023-12-30T13:32:10.424Z,150985.84
2023-12-30T13:34:12.326Z,151023.69
2023-12-30T13:36:13.999Z,150915.19
2023-12-30T13:38:15.528Z,151056.47
2023-12-30T13:40:17.125Z,150975.72
2023-12-30T13:42:19.214Z,151017.34
2023-12-30T13:44:20.679Z,150999.69
2023-12-30T13:46:22.277Z,151061.50
2023-12-30T13:48:23.924Z,150958.06
2023-12-30T13:50:25.407Z,150978.25
2023-12-30T13:52:27.274Z,151018.63
2023-12-30T13:54:28.735Z,150997.16
2023-12-30T13:56:30.475Z,150954.28
2023-12-30T13:58:32.087Z,150915.19
2023-12-30T14:00:33.572Z,150903.84
2023-12-30T14:02:36.177Z,150920.25
2023-12-30T14:04:38.010Z,150910.13
2023-12-30T14:06:39.687Z,150806.72
2023-12-30T14:08:41.489Z,150944.22
2023-12-30T14:10:43.187Z,150971.94
2023-12-30T14:12:44.664Z,150960.59
2023-12-30T14:14:46.217Z,150917.72
2023-12-30T14:16:47.816Z,150852.13
2023-12-30T14:18:49.409Z,150901.31
2023-12-30T14:20:50.907Z,150845.81
2023-12-30T14:22:52.578Z,150930.31
2023-12-30T14:24:54.057Z,150801.72
2023-12-30T14:26:55.513Z,150881.16
2023-12-30T14:28:57.152Z,150960.59
2023-12-30T14:30:58.808Z,150891.22
2023-12-30T14:33:01.129Z,150935.34
2023-12-30T14:35:03.157Z,150939.16
2023-12-30T14:37:04.898Z,150912.66
2023-12-30T14:39:08.986Z,150887.41
2023-12-30T14:41:11.803Z,150845.81
2023-12-30T14:43:13.297Z,150843.28
2023-12-30T14:45:14.808Z,150831.94
2023-12-30T14:47:16.339Z,150845.81
2023-12-30T14:49:17.921Z,150838.28
2023-12-30T14:51:19.431Z,150860.97
2023-12-30T14:53:21.044Z,150916.44
2023-12-30T14:55:22.546Z,150874.81
2023-12-30T14:57:24.123Z,150700.84
2023-12-30T14:59:25.682Z,150930.31
2023-12-30T15:01:27.570Z,150867.25
2023-12-30T15:03:29.243Z,150787.81
2023-12-30T15:05:30.890Z,150838.28
2023-12-30T15:07:32.420Z,150757.59
2023-12-30T15:09:34.029Z,150860.97
2023-12-30T15:11:35.537Z,150840.78
2023-12-30T15:13:38.129Z,150825.63
2023-12-30T15:15:39.627Z,150794.13
2023-12-30T15:17:41.303Z,150823.09
2023-12-30T15:19:42.889Z,150838.28
2023-12-30T15:21:44.421Z,150791.59
2023-12-30T15:23:46.195Z,150767.66
2023-12-30T15:25:47.713Z,150813.03
2023-12-30T15:27:49.265Z,150825.63
2023-12-30T15:29:50.856Z,150819.34
2023-12-30T15:31:52.622Z,150689.50
2023-12-30T15:33:54.229Z,150748.75
2023-12-30T15:35:55.797Z,150802.94
2023-12-30T15:37:58.317Z,150797.94
2023-12-30T15:39:59.782Z,150780.28
2023-12-30T15:42:02.030Z,150707.16
2023-12-30T15:44:03.652Z,150728.56
2023-12-30T15:46:05.241Z,150708.41
2023-12-30T15:48:07.062Z,150675.66
2023-12-30T15:50:08.890Z,150728.56
2023-12-30T15:52:11.527Z,150765.13
2023-12-30T15:54:13.392Z,150658.03
2023-12-30T15:56:14.986Z,150625.22
2023-12-30T15:58:16.495Z,150694.56
2023-12-30T16:00:18.175Z,150654.22
2023-12-30T16:02:19.753Z,150717.25
2023-12-30T16:04:21.899Z,150705.88
2023-12-30T16:06:23.539Z,150446.31
2023-12-30T16:08:25.926Z,150636.59
2023-12-30T16:10:27.635Z,150734.88
2023-12-30T16:12:29.381Z,150685.72
2023-12-30T16:14:30.839Z,150658.03
2023-12-30T16:16:35.153Z,150689.50
2023-12-30T16:18:36.794Z,150709.66
2023-12-30T16:20:38.292Z,150635.34
2023-12-30T16:22:41.678Z,150699.56
2023-12-30T16:24:43.297Z,150683.19
2023-12-30T16:26:44.769Z,150760.13
2023-12-30T16:28:46.723Z,150757.59
2023-12-30T16:30:48.426Z,150760.13
2023-12-30T16:32:49.975Z,150748.75
2023-12-30T16:34:51.476Z,150761.31
2023-12-30T16:36:53.205Z,150768.91
2023-12-30T16:38:54.792Z,150777.75
2023-12-30T16:40:56.244Z,150658.03
2023-12-30T16:42:57.962Z,150700.84
2023-12-30T16:44:59.392Z,150727.31
2023-12-30T16:47:00.819Z,150741.16
2023-12-30T16:49:02.665Z,150728.56
2023-12-30T16:51:04.417Z,150708.41
2023-12-30T16:53:06.053Z,150772.69
2023-12-30T16:55:08.122Z,150808.00
2023-12-30T16:57:09.759Z,150750.00
2023-12-30T16:59:11.184Z,150806.72
2023-12-30T17:01:13.052Z,150775.22
2023-12-30T17:03:15.227Z,150738.69
2023-12-30T17:05:17.130Z,150770.16
2023-12-30T17:07:18.736Z,150806.72
2023-12-30T17:09:20.184Z,150784.03
2023-12-30T17:11:21.629Z,150789.06
2023-12-30T17:13:31.655Z,150750.00
2023-12-30T17:15:40.545Z,150786.56
2023-12-30T17:17:42.423Z,150765.13
2023-12-30T17:19:44.023Z,150760.13
2023-12-30T17:21:45.524Z,150704.63
2023-12-30T17:23:47.098Z,150776.50
2023-12-30T17:25:48.609Z,150763.84
2023-12-30T17:27:50.098Z,150806.72
2023-12-30T17:29:51.744Z,150786.56
2023-12-30T17:31:53.762Z,150780.28
2023-12-30T17:33:55.362Z,150714.72
2023-12-30T17:35:56.924Z,150727.31
2023-12-30T17:37:58.494Z,150770.16
2023-12-30T17:40:00.091Z,150782.75
2023-12-30T17:42:01.774Z,150765.13
2023-12-30T17:44:05.359Z,150799.19
2023-12-30T17:46:07.194Z,150796.66
2023-12-30T17:48:08.944Z,150731.09
2023-12-30T17:50:10.893Z,150772.69
2023-12-30T17:52:12.382Z,150760.13
2023-12-30T17:54:13.959Z,150770.16
2023-12-30T17:56:15.782Z,150806.72
2023-12-30T17:58:17.567Z,150739.94
2023-12-30T18:00:19.315Z,150753.78
2023-12-30T18:02:20.853Z,150787.81
2023-12-30T18:04:22.388Z,150727.31
2023-12-30T18:06:24.359Z,150736.16
2023-12-30T18:08:25.845Z,150810.50
2023-12-30T18:10:27.423Z,150768.91
2023-12-30T18:12:29.079Z,150716.00
2023-12-30T18:14:30.638Z,150814.31
2023-12-30T18:16:32.150Z,150784.03
2023-12-30T18:18:33.937Z,150756.31
2023-12-30T18:20:35.702Z,150777.75
2023-12-30T18:22:37.378Z,150758.84
2023-12-30T18:24:39.092Z,150721.00
2023-12-30T18:26:40.673Z,150804.19
2023-12-30T18:28:42.221Z,150800.44
2023-12-30T18:30:43.953Z,150794.13
2023-12-30T18:32:45.468Z,150781.50
2023-12-30T18:34:47.190Z,150755.06
2023-12-30T18:36:48.800Z,150796.66
2023-12-30T18:38:50.239Z,150721.00
2023-12-30T18:40:51.756Z,150780.28
2023-12-30T18:42:53.390Z,150729.84
2023-12-30T18:44:54.848Z,150771.44
2023-12-30T18:46:56.298Z,150785.28
2023-12-30T18:48:57.916Z,150795.41
2023-12-30T18:50:59.481Z,150766.38
2023-12-30T18:53:01.116Z,150639.06
2023-12-30T18:55:02.786Z,150780.28
2023-12-30T18:57:04.408Z,150791.59
2023-12-30T18:59:05.860Z,150789.06
2023-12-30T19:01:07.671Z,150794.13
2023-12-30T19:03:09.179Z,150779.03
2023-12-30T19:05:11.996Z,150758.84
2023-12-30T19:07:13.751Z,150791.59
2023-12-30T19:09:15.260Z,150826.91
2023-12-30T19:11:16.782Z,150717.25
2023-12-30T19:13:18.522Z,150741.16
2023-12-30T19:15:19.973Z,150830.69
2023-12-30T19:17:21.572Z,150784.03
2023-12-30T19:19:23.352Z,150776.50
2023-12-30T19:21:24.873Z,150776.50
2023-12-30T19:23:26.352Z,150649.19
2023-12-30T19:25:27.937Z,150814.31
2023-12-30T19:27:29.426Z,150760.13
2023-12-30T19:29:30.876Z,150704.63
2023-12-30T19:31:32.505Z,150777.75
2023-12-30T19:33:34.049Z,150779.03
2023-12-30T19:35:36.027Z,150630.28
2023-12-30T19:37:38.248Z,150721.00
2023-12-30T19:39:39.745Z,150673.13
2023-12-30T19:41:41.179Z,150709.66
2023-12-30T19:43:42.857Z,150702.09
2023-12-30T19:45:44.500Z,150717.25
2023-12-30T19:47:46.113Z,150612.66
2023-12-30T19:49:48.247Z,150574.88
2023-12-30T19:51:49.823Z,150582.41
2023-12-30T19:53:51.263Z,150403.50
2023-12-30T19:55:52.839Z,150603.81
2023-12-30T19:57:54.296Z,150486.66
2023-12-30T19:59:55.733Z,150393.41
2023-12-30T20:01:57.252Z,150491.72
2023-12-30T20:03:58.769Z,150367.00
2023-12-30T20:06:00.372Z,150419.88
2023-12-30T20:08:02.165Z,150319.16
2023-12-30T20:10:04.207Z,150422.38
2023-12-30T20:12:06.194Z,150393.41
2023-12-30T20:14:08.138Z,150437.50
2023-12-30T20:16:09.649Z,150431.22
2023-12-30T20:18:11.285Z,150388.41
2023-12-30T20:20:13.060Z,150423.66
2023-12-30T20:22:14.537Z,150360.69
2023-12-30T20:24:22.420Z,150390.94
2023-12-30T20:26:23.860Z,150368.28
2023-12-30T20:28:25.355Z,150335.50
2023-12-30T20:30:26.840Z,150403.50
2023-12-30T20:32:28.407Z,150424.91
2023-12-30T20:34:29.903Z,150450.13
2023-12-30T20:36:31.405Z,150419.88
2023-12-30T20:38:33.030Z,150472.78
2023-12-30T20:40:34.556Z,150501.78
2023-12-30T20:42:36.073Z,150398.47
2023-12-30T20:44:38.357Z,150392.19
2023-12-30T20:46:43.533Z,150475.25
2023-12-30T20:48:45.039Z,150471.53
2023-12-30T20:50:46.635Z,150485.41
2023-12-30T20:52:48.220Z,150433.69
2023-12-30T20:54:49.941Z,150379.56
2023-12-30T20:56:51.489Z,150402.25
2023-12-30T20:58:53.009Z,150368.28
2023-12-30T21:00:54.493Z,150392.19
2023-12-30T21:02:56.053Z,150403.50
2023-12-30T21:04:57.563Z,150356.91
2023-12-30T21:06:59.060Z,150370.78
2023-12-30T21:09:00.737Z,150441.28
2023-12-30T21:11:02.212Z,150310.38
2023-12-30T21:13:04.406Z,150380.84
2023-12-30T21:15:06.505Z,150350.66
2023-12-30T21:17:07.958Z,150309.09
2023-12-30T21:19:09.418Z,150317.88
2023-12-30T21:21:10.990Z,150282.66
2023-12-30T21:23:12.498Z,150275.09
2023-12-30T21:25:19.587Z,150317.88
2023-12-30T21:27:28.129Z,150316.63
2023-12-30T21:29:30.582Z,150394.66
2023-12-30T21:31:32.111Z,150302.78
2023-12-30T21:33:34.986Z,150343.06
2023-12-30T21:35:36.542Z,150436.22
2023-12-30T21:37:42.015Z,150321.69
2023-12-30T21:39:49.115Z,150341.81
2023-12-30T21:41:50.567Z,150385.88
2023-12-30T21:43:52.202Z,150424.91
2023-12-30T21:45:53.756Z,150428.69
2023-12-30T21:47:55.281Z,150453.84
2023-12-30T21:49:57.078Z,150446.31
2023-12-30T21:51:58.692Z,150422.38
2023-12-30T21:54:00.203Z,150476.53
2023-12-30T21:56:01.673Z,150360.69
2023-12-30T21:58:04.613Z,150429.97
2023-12-30T22:00:06.757Z,150436.22
2023-12-30T22:02:08.361Z,150409.81
2023-12-30T22:04:09.936Z,150340.56
2023-12-30T22:06:11.741Z,150336.78
2023-12-30T22:08:13.404Z,150404.78
2023-12-30T22:10:15.813Z,150358.16
2023-12-30T22:12:17.354Z,150237.34
2023-12-30T22:14:18.858Z,150290.19
2023-12-30T22:16:20.514Z,150306.59
2023-12-30T22:18:22.026Z,150305.31
2023-12-30T22:20:23.572Z,150254.94
2023-12-30T22:22:25.258Z,150302.78
2023-12-30T22:24:26.758Z,150205.91
2023-12-30T22:26:28.411Z,150210.91
2023-12-30T22:28:29.890Z,150234.81
2023-12-30T22:30:31.476Z,150278.88
2023-12-30T22:32:33.217Z,149892.72
2023-12-30T22:34:35.000Z,150106.47
2023-12-30T22:36:36.518Z,150222.25
2023-12-30T22:38:38.978Z,149847.47
2023-12-30T22:40:40.585Z,150224.78
2023-12-30T22:42:42.209Z,149880.16
2023-12-30T22:44:43.856Z,149985.75
2023-12-30T22:46:45.944Z,150159.34
2023-12-30T22:48:47.774Z,150144.25
2023-12-30T22:50:50.307Z,150184.50
2023-12-30T22:52:51.824Z,150188.25
2023-12-30T22:54:53.272Z,150154.28
2023-12-30T22:56:54.921Z,150087.59
2023-12-30T22:58:56.370Z,150197.06
2023-12-30T23:00:57.909Z,150169.38
2023-12-30T23:02:59.876Z,150180.72
2023-12-30T23:05:01.492Z,150227.31
2023-12-30T23:07:03.010Z,150215.94
2023-12-30T23:09:04.732Z,150208.38
2023-12-30T23:11:06.320Z,150248.69
2023-12-30T23:13:07.966Z,150314.09
2023-12-30T23:15:09.819Z,150301.53